Detall de PIREP

Printer-friendly versionPDF version

[2015/02/22 17:04:00]
Flight IATA:CT3110
Pilot Number:037
Company ICAO:CAT
Aircraft Type:B752/E
PAX:75
Aircraft Registration:PAX
Departing Airport: LEBL
Destination Airport: LEPA
Alternate Airport:LEBL
Online: VATSIM
Route:LARPA B31 TOLSO
Flight Level:F170
No Slew and time accel
No pause
Crash detect
Detect pilot in Cockpit between each 30 and 45 minutes
17:04 Zero fuel Weight: 152641 Lbs, Fuel Weight: 16384 Lbs
17:04 VATSIM:LEBL 221630Z 26006KT 220V310 CAVOK 15/M10 Q1008 NOSIG
17:04 VATSIM:LEPA 221630Z 34015KT 9999 FEW035 12/M02 Q1009 NOSIG
17:12 Take-off
17:12 Take off Weight: 168198 Lbs
17:12 Wind: 265º @ 006 Knots Heading: 244º
17:12 POS N41º 17´ 06´´ E002º 04´ 58´´
17:13 Flaps:2 at 179 Knots
17:13 Flaps:1 at 180 Knots
17:13 Gear Up: 172 Knots
17:14 Flaps:0 at 207 Knots
17:20 TOC
17:20 Fuel Weight: 13539 Lb
17:25 TOD
17:25 Fuel Weight: 12675 Lb
17:28 Wind:355º@038 Knots Heading: 163º Ground Speed: 333 Knots Altitude 12562 ft
17:34 Flaps:1 at 211 Knots
17:35 Flaps:2 at 197 Knots
17:35 Gear Down: 187 Knots
17:36 Flaps:3 at 164 Knots
17:37 Flaps:4 at 143 Knots
17:37 Flaps:5 at 137 Knots
17:37 TouchDown:Rate -302 ft/min Speed: 119 Knots
17:37 VATSIM:LEPA 221700Z 35014KT 310V010 9999 FEW050 12/M02 Q1010 NOSIG
17:37 Land
17:37 Wind:320º@014 Knots
17:37 Heading: 063º
17:37 Flight Duration: 00:25
17:37 Landing Weight: 164667 Lbs
17:37 POS N39º 33´ 00´´ E002º 43´ 01´´
17:39 Parking brakes on
17:39 Block to Block Duration: 00:27
17:39 Final Fuel: 11827 Lbls
17:39 Spent Fuel: 4556 Lbls
17:39 Flight Length: 127 NM
17:39 TOD Land Length: 54 NM

Exportar CSV

Powered by Drupal - Modified by Danger4k